sensor_id;sensor_type;location;lat;lon;timestamp;temperature;humidity
42227;DHT22;27892;52.378;13.122;2023-03-01T00:01:54;1.10;54.90
42227;DHT22;27892;52.378;13.122;2023-03-01T00:04:19;1.10;55.10
42227;DHT22;27892;52.378;13.122;2023-03-01T00:06:45;1.10;55.20
42227;DHT22;27892;52.378;13.122;2023-03-01T00:09:13;1.10;55.10
42227;DHT22;27892;52.378;13.122;2023-03-01T00:11:39;1.00;55.00
42227;DHT22;27892;52.378;13.122;2023-03-01T00:14:05;1.00;55.00
42227;DHT22;27892;52.378;13.122;2023-03-01T00:16:37;0.90;54.90
42227;DHT22;27892;52.378;13.122;2023-03-01T00:19:06;0.80;54.80
42227;DHT22;27892;52.378;13.122;2023-03-01T00:21:32;0.80;55.10
42227;DHT22;27892;52.378;13.122;2023-03-01T00:23:58;0.70;55.00
42227;DHT22;27892;52.378;13.122;2023-03-01T00:26:25;0.70;55.30
42227;DHT22;27892;52.378;13.122;2023-03-01T00:28:51;0.80;55.50
42227;DHT22;27892;52.378;13.122;2023-03-01T00:31:22;0.70;55.30
42227;DHT22;27892;52.378;13.122;2023-03-01T00:33:48;0.70;55.20
42227;DHT22;27892;52.378;13.122;2023-03-01T00:36:15;0.70;55.10
42227;DHT22;27892;52.378;13.122;2023-03-01T00:38:45;0.60;55.30
42227;DHT22;27892;52.378;13.122;2023-03-01T00:41:13;0.60;55.40
42227;DHT22;27892;52.378;13.122;2023-03-01T00:43:39;0.50;55.50
42227;DHT22;27892;52.378;13.122;2023-03-01T00:46:07;0.60;55.70
42227;DHT22;27892;52.378;13.122;2023-03-01T00:48:33;0.50;55.70
42227;DHT22;27892;52.378;13.122;2023-03-01T00:51:08;0.60;55.80
42227;DHT22;27892;52.378;13.122;2023-03-01T00:53:34;0.60;55.60
42227;DHT22;27892;52.378;13.122;2023-03-01T00:56:00;0.60;55.80
42227;DHT22;27892;52.378;13.122;2023-03-01T00:58:26;0.60;55.90
42227;DHT22;27892;52.378;13.122;2023-03-01T01:00:52;0.60;55.60
42227;DHT22;27892;52.378;13.122;2023-03-01T01:03:18;0.60;55.60
42227;DHT22;27892;52.378;13.122;2023-03-01T01:05:44;0.50;55.50
42227;DHT22;27892;52.378;13.122;2023-03-01T01:08:10;0.40;56.40
42227;DHT22;27892;52.378;13.122;2023-03-01T01:10:36;0.40;56.10
42227;DHT22;27892;52.378;13.122;2023-03-01T01:13:02;0.50;56.20
42227;DHT22;27892;52.378;13.122;2023-03-01T01:15:28;0.40;55.80
42227;DHT22;27892;52.378;13.122;2023-03-01T01:17:53;0.40;55.90
42227;DHT22;27892;52.378;13.122;2023-03-01T01:20:20;0.40;56.10
42227;DHT22;27892;52.378;13.122;2023-03-01T01:22:46;0.40;56.20
42227;DHT22;27892;52.378;13.122;2023-03-01T01:25:11;0.50;56.30
42227;DHT22;27892;52.378;13.122;2023-03-01T01:27:37;0.50;56.30
42227;DHT22;27892;52.378;13.122;2023-03-01T01:30:04;0.50;56.40
42227;DHT22;27892;52.378;13.122;2023-03-01T01:32:29;0.50;56.30
42227;DHT22;27892;52.378;13.122;2023-03-01T01:34:55;0.40;56.00
42227;DHT22;27892;52.378;13.122;2023-03-01T01:37:21;0.40;56.10
42227;DHT22;27892;52.378;13.122;2023-03-01T01:39:47;0.40;56.00
42227;DHT22;27892;52.378;13.122;2023-03-01T01:42:17;0.30;55.80
42227;DHT22;27892;52.378;13.122;2023-03-01T01:44:46;0.20;55.70
42227;DHT22;27892;52.378;13.122;2023-03-01T01:47:19;0.20;56.10
42227;DHT22;27892;52.378;13.122;2023-03-01T01:49:52;0.20;56.10
42227;DHT22;27892;52.378;13.122;2023-03-01T01:52:33;0.10;55.90
42227;DHT22;27892;52.378;13.122;2023-03-01T01:55:21;0.10;56.00
42227;DHT22;27892;52.378;13.122;2023-03-01T01:57:52;0.10;56.20
42227;DHT22;27892;52.378;13.122;2023-03-01T02:00:22;0.00;56.40
42227;DHT22;27892;52.378;13.122;2023-03-01T02:02:50;0.00;56.60
42227;DHT22;27892;52.378;13.122;2023-03-01T02:07:59;-0.10;56.70
42227;DHT22;27892;52.378;13.122;2023-03-01T02:10:26;-0.10;56.80
42227;DHT22;27892;52.378;13.122;2023-03-01T02:12:54;-0.10;56.80
42227;DHT22;27892;52.378;13.122;2023-03-01T02:15:23;0.00;56.90
42227;DHT22;27892;52.378;13.122;2023-03-01T02:17:49;0.00;56.80
42227;DHT22;27892;52.378;13.122;2023-03-01T02:23:09;0.00;56.70
42227;DHT22;27892;52.378;13.122;2023-03-01T02:30:43;-0.10;56.70
42227;DHT22;27892;52.378;13.122;2023-03-01T02:33:29;-0.10;56.70
42227;DHT22;27892;52.378;13.122;2023-03-01T02:36:00;-0.10;56.60
42227;DHT22;27892;52.378;13.122;2023-03-01T02:38:27;-0.10;56.40
42227;DHT22;27892;52.378;13.122;2023-03-01T02:40:54;-0.10;56.40
42227;DHT22;27892;52.378;13.122;2023-03-01T02:43:25;-0.10;56.50
42227;DHT22;27892;52.378;13.122;2023-03-01T02:45:54;-0.10;56.60
42227;DHT22;27892;52.378;13.122;2023-03-01T02:48:22;-0.10;56.40
42227;DHT22;27892;52.378;13.122;2023-03-01T02:56:21;-0.20;56.50
42227;DHT22;27892;52.378;13.122;2023-03-01T02:58:47;-0.20;56.50
42227;DHT22;27892;52.378;13.122;2023-03-01T03:01:19;-0.20;56.30
42227;DHT22;27892;52.378;13.122;2023-03-01T03:03:45;-0.30;56.40
42227;DHT22;27892;52.378;13.122;2023-03-01T03:06:28;-0.30;56.40
42227;DHT22;27892;52.378;13.122;2023-03-01T03:09:13;-0.30;56.30
42227;DHT22;27892;52.378;13.122;2023-03-01T03:11:58;-0.30;56.30
42227;DHT22;27892;52.378;13.122;2023-03-01T03:14:42;-0.30;56.50
42227;DHT22;27892;52.378;13.122;2023-03-01T03:17:08;-0.30;56.60
42227;DHT22;27892;52.378;13.122;2023-03-01T03:19:34;-0.30;57.10
42227;DHT22;27892;52.378;13.122;2023-03-01T03:21:59;-0.30;56.30
42227;DHT22;27892;52.378;13.122;2023-03-01T03:24:25;-0.40;56.10
42227;DHT22;27892;52.378;13.122;2023-03-01T03:26:50;-0.40;56.20
42227;DHT22;27892;52.378;13.122;2023-03-01T03:29:16;-0.50;56.40
42227;DHT22;27892;52.378;13.122;2023-03-01T03:31:42;-0.50;56.50
42227;DHT22;27892;52.378;13.122;2023-03-01T03:34:07;-0.50;56.70
42227;DHT22;27892;52.378;13.122;2023-03-01T03:36:33;-0.40;57.00
42227;DHT22;27892;52.378;13.122;2023-03-01T03:38:58;-0.40;56.80
42227;DHT22;27892;52.378;13.122;2023-03-01T03:41:24;-0.40;56.60
42227;DHT22;27892;52.378;13.122;2023-03-01T03:43:50;-0.40;56.50
42227;DHT22;27892;52.378;13.122;2023-03-01T03:46:15;-0.40;56.40
42227;DHT22;27892;52.378;13.122;2023-03-01T03:48:44;-0.40;56.50
42227;DHT22;27892;52.378;13.122;2023-03-01T03:51:11;-0.40;56.50
42227;DHT22;27892;52.378;13.122;2023-03-01T03:53:37;-0.40;56.50
42227;DHT22;27892;52.378;13.122;2023-03-01T03:56:03;-0.40;56.10
42227;DHT22;27892;52.378;13.122;2023-03-01T03:58:29;-0.50;56.00
42227;DHT22;27892;52.378;13.122;2023-03-01T04:00:57;-0.60;56.20
42227;DHT22;27892;52.378;13.122;2023-03-01T04:03:24;-0.60;56.40
42227;DHT22;27892;52.378;13.122;2023-03-01T04:05:51;-0.70;56.40
42227;DHT22;27892;52.378;13.122;2023-03-01T04:08:21;-0.70;56.70
42227;DHT22;27892;52.378;13.122;2023-03-01T04:10:50;-0.70;56.70
42227;DHT22;27892;52.378;13.122;2023-03-01T04:13:21;-0.80;56.70
42227;DHT22;27892;52.378;13.122;2023-03-01T04:15:51;-0.80;56.70
42227;DHT22;27892;52.378;13.122;2023-03-01T04:18:18;-0.80;56.70
42227;DHT22;27892;52.378;13.122;2023-03-01T04:20:45;-0.80;56.80
42227;DHT22;27892;52.378;13.122;2023-03-01T04:23:16;-0.90;56.80
42227;DHT22;27892;52.378;13.122;2023-03-01T04:25:56;-0.90;56.80
42227;DHT22;27892;52.378;13.122;2023-03-01T04:28:25;-0.90;57.50
42227;DHT22;27892;52.378;13.122;2023-03-01T04:30:53;-0.90;57.30
42227;DHT22;27892;52.378;13.122;2023-03-01T04:33:19;-0.90;57.20
42227;DHT22;27892;52.378;13.122;2023-03-01T04:35:45;-0.80;57.30
42227;DHT22;27892;52.378;13.122;2023-03-01T04:38:11;-0.80;57.80
42227;DHT22;27892;52.378;13.122;2023-03-01T04:40:37;-0.80;57.10
42227;DHT22;27892;52.378;13.122;2023-03-01T04:43:03;-0.70;57.00
42227;DHT22;27892;52.378;13.122;2023-03-01T04:45:31;-0.80;56.40
42227;DHT22;27892;52.378;13.122;2023-03-01T04:47:57;-0.90;56.50
42227;DHT22;27892;52.378;13.122;2023-03-01T04:50:23;-0.90;56.40
42227;DHT22;27892;52.378;13.122;2023-03-01T04:52:49;-1.00;56.60
42227;DHT22;27892;52.378;13.122;2023-03-01T04:55:15;-1.10;56.70
42227;DHT22;27892;52.378;13.122;2023-03-01T04:57:41;-1.10;56.60
42227;DHT22;27892;52.378;13.122;2023-03-01T05:00:10;-1.10;57.30
42227;DHT22;27892;52.378;13.122;2023-03-01T05:05:14;-1.10;56.80
42227;DHT22;27892;52.378;13.122;2023-03-01T05:07:39;-1.10;56.70
42227;DHT22;27892;52.378;13.122;2023-03-01T05:10:05;-1.10;57.20
42227;DHT22;27892;52.378;13.122;2023-03-01T05:12:31;-1.10;56.40
42227;DHT22;27892;52.378;13.122;2023-03-01T05:14:56;-1.20;56.50
42227;DHT22;27892;52.378;13.122;2023-03-01T05:17:22;-1.10;56.80
42227;DHT22;27892;52.378;13.122;2023-03-01T05:19:48;-1.10;56.60
42227;DHT22;27892;52.378;13.122;2023-03-01T05:22:14;-1.10;56.60
42227;DHT22;27892;52.378;13.122;2023-03-01T05:24:39;-1.10;56.10
42227;DHT22;27892;52.378;13.122;2023-03-01T05:27:05;-1.20;56.10
42227;DHT22;27892;52.378;13.122;2023-03-01T05:29:32;-1.20;56.40
42227;DHT22;27892;52.378;13.122;2023-03-01T05:32:01;-1.20;56.60
42227;DHT22;27892;52.378;13.122;2023-03-01T05:34:35;-1.10;56.60
42227;DHT22;27892;52.378;13.122;2023-03-01T05:37:02;-1.10;56.50
42227;DHT22;27892;52.378;13.122;2023-03-01T05:39:29;-1.10;56.50
42227;DHT22;27892;52.378;13.122;2023-03-01T05:41:59;-1.10;56.40
42227;DHT22;27892;52.378;13.122;2023-03-01T05:44:26;-1.00;56.60
42227;DHT22;27892;52.378;13.122;2023-03-01T05:46:52;-1.00;56.50
42227;DHT22;27892;52.378;13.122;2023-03-01T05:49:17;-1.00;56.30
42227;DHT22;27892;52.378;13.122;2023-03-01T05:51:47;-1.00;56.30
42227;DHT22;27892;52.378;13.122;2023-03-01T05:54:13;-1.00;56.30
42227;DHT22;27892;52.378;13.122;2023-03-01T05:56:39;-1.00;56.20
42227;DHT22;27892;52.378;13.122;2023-03-01T05:59:05;-1.00;56.10
42227;DHT22;27892;52.378;13.122;2023-03-01T06:01:32;-1.10;55.90
42227;DHT22;27892;52.378;13.122;2023-03-01T06:03:58;-1.00;56.00
42227;DHT22;27892;52.378;13.122;2023-03-01T06:06:24;-1.10;55.90
42227;DHT22;27892;52.378;13.122;2023-03-01T06:08:51;-1.00;56.00
42227;DHT22;27892;52.378;13.122;2023-03-01T06:11:17;-1.00;55.80
42227;DHT22;27892;52.378;13.122;2023-03-01T06:13:43;-1.00;55.90
42227;DHT22;27892;52.378;13.122;2023-03-01T06:16:10;-0.90;56.00
42227;DHT22;27892;52.378;13.122;2023-03-01T06:18:36;-0.80;56.80
42227;DHT22;27892;52.378;13.122;2023-03-01T06:21:03;-0.80;56.00
42227;DHT22;27892;52.378;13.122;2023-03-01T06:23:28;-0.70;55.90
42227;DHT22;27892;52.378;13.122;2023-03-01T06:25:54;-0.60;56.10
42227;DHT22;27892;52.378;13.122;2023-03-01T06:28:20;-0.50;56.20
42227;DHT22;27892;52.378;13.122;2023-03-01T06:30:46;-0.40;56.00
42227;DHT22;27892;52.378;13.122;2023-03-01T06:33:12;-0.40;55.70
42227;DHT22;27892;52.378;13.122;2023-03-01T06:35:37;-0.40;55.50
42227;DHT22;27892;52.378;13.122;2023-03-01T06:38:05;-0.30;55.80
42227;DHT22;27892;52.378;13.122;2023-03-01T06:40:31;-0.30;56.10
42227;DHT22;27892;52.378;13.122;2023-03-01T06:42:57;-0.20;56.30
42227;DHT22;27892;52.378;13.122;2023-03-01T06:45:23;0.00;56.60
42227;DHT22;27892;52.378;13.122;2023-03-01T06:47:50;0.20;56.80
42227;DHT22;27892;52.378;13.122;2023-03-01T06:50:16;0.50;56.90
42227;DHT22;27892;52.378;13.122;2023-03-01T06:52:42;0.70;56.40
42227;DHT22;27892;52.378;13.122;2023-03-01T06:55:11;0.90;56.30
42227;DHT22;27892;52.378;13.122;2023-03-01T06:57:37;1.10;56.50
42227;DHT22;27892;52.378;13.122;2023-03-01T07:00:04;1.40;56.60
42227;DHT22;27892;52.378;13.122;2023-03-01T07:02:30;1.70;56.60
42227;DHT22;27892;52.378;13.122;2023-03-01T07:04:55;2.00;56.10
42227;DHT22;27892;52.378;13.122;2023-03-01T07:07:21;2.30;56.30
42227;DHT22;27892;52.378;13.122;2023-03-01T07:09:49;2.70;57.20
42227;DHT22;27892;52.378;13.122;2023-03-01T07:12:15;3.50;57.30
42227;DHT22;27892;52.378;13.122;2023-03-01T07:14:41;4.70;55.90
42227;DHT22;27892;52.378;13.122;2023-03-01T07:17:06;6.10;54.50
42227;DHT22;27892;52.378;13.122;2023-03-01T07:19:32;7.50;51.80
42227;DHT22;27892;52.378;13.122;2023-03-01T07:21:57;8.40;48.80
42227;DHT22;27892;52.378;13.122;2023-03-01T07:24:23;9.00;47.90
42227;DHT22;27892;52.378;13.122;2023-03-01T07:26:50;9.50;46.80
42227;DHT22;27892;52.378;13.122;2023-03-01T07:29:16;10.10;44.40
42227;DHT22;27892;52.378;13.122;2023-03-01T07:31:42;10.20;43.50
42227;DHT22;27892;52.378;13.122;2023-03-01T07:34:08;10.30;42.80
42227;DHT22;27892;52.378;13.122;2023-03-01T07:36:33;9.90;42.60
42227;DHT22;27892;52.378;13.122;2023-03-01T07:38:59;9.00;42.50
42227;DHT22;27892;52.378;13.122;2023-03-01T07:41:28;8.10;43.10
42227;DHT22;27892;52.378;13.122;2023-03-01T07:43:53;7.40;44.10
42227;DHT22;27892;52.378;13.122;2023-03-01T07:46:19;6.70;44.70
42227;DHT22;27892;52.378;13.122;2023-03-01T07:48:45;6.30;45.50
42227;DHT22;27892;52.378;13.122;2023-03-01T07:51:10;5.90;47.20
42227;DHT22;27892;52.378;13.122;2023-03-01T07:53:37;5.70;47.90
42227;DHT22;27892;52.378;13.122;2023-03-01T07:56:10;5.60;47.90
42227;DHT22;27892;52.378;13.122;2023-03-01T07:58:41;5.40;48.50
42227;DHT22;27892;52.378;13.122;2023-03-01T08:01:09;5.30;49.00
42227;DHT22;27892;52.378;13.122;2023-03-01T08:03:36;5.10;49.60
42227;DHT22;27892;52.378;13.122;2023-03-01T08:06:04;5.10;50.10
42227;DHT22;27892;52.378;13.122;2023-03-01T08:08:30;5.10;50.70
42227;DHT22;27892;52.378;13.122;2023-03-01T08:10:56;5.20;51.20
42227;DHT22;27892;52.378;13.122;2023-03-01T08:13:22;5.30;51.60
42227;DHT22;27892;52.378;13.122;2023-03-01T08:15:49;5.40;51.80
42227;DHT22;27892;52.378;13.122;2023-03-01T08:18:15;6.30;54.70
42227;DHT22;27892;52.378;13.122;2023-03-01T08:20:41;8.80;53.50
42227;DHT22;27892;52.378;13.122;2023-03-01T08:23:07;11.80;47.00
42227;DHT22;27892;52.378;13.122;2023-03-01T08:25:33;13.60;42.20
42227;DHT22;27892;52.378;13.122;2023-03-01T08:27:59;13.60;39.70
42227;DHT22;27892;52.378;13.122;2023-03-01T08:30:25;14.80;39.30
42227;DHT22;27892;52.378;13.122;2023-03-01T08:32:51;17.20;36.50
42227;DHT22;27892;52.378;13.122;2023-03-01T08:35:17;19.20;33.10
42227;DHT22;27892;52.378;13.122;2023-03-01T08:37:44;20.70;33.30
42227;DHT22;27892;52.378;13.122;2023-03-01T08:40:10;21.70;30.20
42227;DHT22;27892;52.378;13.122;2023-03-01T08:42:36;22.40;29.90
42227;DHT22;27892;52.378;13.122;2023-03-01T08:45:07;22.80;28.70
42227;DHT22;27892;52.378;13.122;2023-03-01T08:47:33;23.20;26.80
42227;DHT22;27892;52.378;13.122;2023-03-01T08:49:59;23.10;25.20
42227;DHT22;27892;52.378;13.122;2023-03-01T08:52:25;23.70;25.70
42227;DHT22;27892;52.378;13.122;2023-03-01T08:54:51;25.10;25.40
42227;DHT22;27892;52.378;13.122;2023-03-01T08:57:17;26.40;24.50
42227;DHT22;27892;52.378;13.122;2023-03-01T08:59:42;27.60;24.10
42227;DHT22;27892;52.378;13.122;2023-03-01T09:02:16;27.90;20.60
42227;DHT22;27892;52.378;13.122;2023-03-01T09:04:42;27.50;20.70
42227;DHT22;27892;52.378;13.122;2023-03-01T09:07:08;27.70;20.90
42227;DHT22;27892;52.378;13.122;2023-03-01T09:09:35;28.30;20.20
42227;DHT22;27892;52.378;13.122;2023-03-01T09:12:01;28.20;19.80
42227;DHT22;27892;52.378;13.122;2023-03-01T09:14:27;27.60;20.40
42227;DHT22;27892;52.378;13.122;2023-03-01T09:16:53;27.60;20.00
42227;DHT22;27892;52.378;13.122;2023-03-01T09:19:18;26.90;20.30
42227;DHT22;27892;52.378;13.122;2023-03-01T09:21:44;27.00;20.00
42227;DHT22;27892;52.378;13.122;2023-03-01T09:24:23;26.20;18.80
42227;DHT22;27892;52.378;13.122;2023-03-01T09:26:49;23.40;19.70
42227;DHT22;27892;52.378;13.122;2023-03-01T09:29:18;20.70;21.50
42227;DHT22;27892;52.378;13.122;2023-03-01T09:31:43;18.60;22.50
42227;DHT22;27892;52.378;13.122;2023-03-01T09:34:09;16.70;23.80
42227;DHT22;27892;52.378;13.122;2023-03-01T09:36:35;15.10;24.80
42227;DHT22;27892;52.378;13.122;2023-03-01T09:39:02;13.90;25.50
42227;DHT22;27892;52.378;13.122;2023-03-01T09:41:52;13.10;26.50
42227;DHT22;27892;52.378;13.122;2023-03-01T09:44:50;12.50;27.80
42227;DHT22;27892;52.378;13.122;2023-03-01T09:47:21;11.70;28.70
42227;DHT22;27892;52.378;13.122;2023-03-01T09:52:42;10.90;29.60
42227;DHT22;27892;52.378;13.122;2023-03-01T09:55:25;10.50;30.20
42227;DHT22;27892;52.378;13.122;2023-03-01T10:00:44;10.10;32.50
42227;DHT22;27892;52.378;13.122;2023-03-01T10:03:36;10.00;33.00
42227;DHT22;27892;52.378;13.122;2023-03-01T10:08:57;10.00;33.70
42227;DHT22;27892;52.378;13.122;2023-03-01T10:11:26;10.00;34.20
42227;DHT22;27892;52.378;13.122;2023-03-01T10:14:30;9.90;34.50
42227;DHT22;27892;52.378;13.122;2023-03-01T10:19:55;9.80;34.40
42227;DHT22;27892;52.378;13.122;2023-03-01T10:22:30;9.60;34.30
42227;DHT22;27892;52.378;13.122;2023-03-01T10:25:03;9.60;34.30
42227;DHT22;27892;52.378;13.122;2023-03-01T10:32:43;10.10;34.50
42227;DHT22;27892;52.378;13.122;2023-03-01T10:35:17;10.40;33.80
42227;DHT22;27892;52.378;13.122;2023-03-01T10:38:10;11.30;34.90
42227;DHT22;27892;52.378;13.122;2023-03-01T10:40:59;12.30;33.40
42227;DHT22;27892;52.378;13.122;2023-03-01T10:49:14;14.70;31.50
42227;DHT22;27892;52.378;13.122;2023-03-01T10:51:42;17.20;29.10
42227;DHT22;27892;52.378;13.122;2023-03-01T10:54:29;19.40;27.70
42227;DHT22;27892;52.378;13.122;2023-03-01T10:57:01;20.80;24.10
42227;DHT22;27892;52.378;13.122;2023-03-01T10:59:38;21.60;24.50
42227;DHT22;27892;52.378;13.122;2023-03-01T11:02:28;22.10;23.20
42227;DHT22;27892;52.378;13.122;2023-03-01T11:05:07;22.10;22.30
42227;DHT22;27892;52.378;13.122;2023-03-01T11:08:08;22.40;23.20
42227;DHT22;27892;52.378;13.122;2023-03-01T11:10:36;22.40;23.10
42227;DHT22;27892;52.378;13.122;2023-03-01T11:13:16;22.20;22.80
42227;DHT22;27892;52.378;13.122;2023-03-01T11:15:43;22.30;22.90
42227;DHT22;27892;52.378;13.122;2023-03-01T11:18:22;22.00;22.10
42227;DHT22;27892;52.378;13.122;2023-03-01T11:20:48;21.80;22.30
42227;DHT22;27892;52.378;13.122;2023-03-01T11:23:17;21.60;21.20
42227;DHT22;27892;52.378;13.122;2023-03-01T11:25:56;21.50;21.20
42227;DHT22;27892;52.378;13.122;2023-03-01T11:28:22;21.50;21.50
42227;DHT22;27892;52.378;13.122;2023-03-01T11:36:52;21.40;21.10
42227;DHT22;27892;52.378;13.122;2023-03-01T11:39:51;22.20;21.50
42227;DHT22;27892;52.378;13.122;2023-03-01T11:42:37;22.90;21.40
42227;DHT22;27892;52.378;13.122;2023-03-01T11:45:10;23.80;19.70
42227;DHT22;27892;52.378;13.122;2023-03-01T11:50:53;24.70;19.60
42227;DHT22;27892;52.378;13.122;2023-03-01T12:04:50;26.40;18.80
42227;DHT22;27892;52.378;13.122;2023-03-01T12:12:40;24.50;19.50
42227;DHT22;27892;52.378;13.122;2023-03-01T12:26:35;22.30;21.90
42227;DHT22;27892;52.378;13.122;2023-03-01T12:34:29;22.00;21.00
42227;DHT22;27892;52.378;13.122;2023-03-01T12:40:01;22.10;21.40
42227;DHT22;27892;52.378;13.122;2023-03-01T12:42:55;22.50;21.10
42227;DHT22;27892;52.378;13.122;2023-03-01T12:45:44;22.20;20.40
42227;DHT22;27892;52.378;13.122;2023-03-01T12:48:50;22.00;21.30
42227;DHT22;27892;52.378;13.122;2023-03-01T12:51:24;21.90;20.70
42227;DHT22;27892;52.378;13.122;2023-03-01T12:53:53;21.90;20.80
42227;DHT22;27892;52.378;13.122;2023-03-01T12:56:25;21.90;20.80
42227;DHT22;27892;52.378;13.122;2023-03-01T12:59:01;21.50;20.70
42227;DHT22;27892;52.378;13.122;2023-03-01T13:01:36;20.80;21.10
42227;DHT22;27892;52.378;13.122;2023-03-01T13:04:18;20.00;21.00
42227;DHT22;27892;52.378;13.122;2023-03-01T13:20:25;16.00;23.10
42227;DHT22;27892;52.378;13.122;2023-03-01T13:31:00;16.40;24.60
42227;DHT22;27892;52.378;13.122;2023-03-01T13:35:56;17.90;24.00
42227;DHT22;27892;52.378;13.122;2023-03-01T13:41:10;19.30;23.40
42227;DHT22;27892;52.378;13.122;2023-03-01T13:43:38;20.00;22.80
42227;DHT22;27892;52.378;13.122;2023-03-01T13:46:17;20.30;21.20
42227;DHT22;27892;52.378;13.122;2023-03-01T13:48:47;20.30;20.90
42227;DHT22;27892;52.378;13.122;2023-03-01T13:51:14;20.00;21.00
42227;DHT22;27892;52.378;13.122;2023-03-01T13:53:44;20.00;21.20
42227;DHT22;27892;52.378;13.122;2023-03-01T13:56:23;20.40;21.80
42227;DHT22;27892;52.378;13.122;2023-03-01T13:58:59;21.20;21.40
42227;DHT22;27892;52.378;13.122;2023-03-01T14:01:29;21.70;20.90
42227;DHT22;27892;52.378;13.122;2023-03-01T14:03:56;22.10;20.10
42227;DHT22;27892;52.378;13.122;2023-03-01T14:06:33;22.50;19.90
42227;DHT22;27892;52.378;13.122;2023-03-01T14:09:22;22.80;19.80
42227;DHT22;27892;52.378;13.122;2023-03-01T14:19:40;23.30;18.80
42227;DHT22;27892;52.378;13.122;2023-03-01T14:22:22;23.20;18.30
42227;DHT22;27892;52.378;13.122;2023-03-01T14:24:51;23.30;18.40
42227;DHT22;27892;52.378;13.122;2023-03-01T14:27:17;22.90;18.20
42227;DHT22;27892;52.378;13.122;2023-03-01T14:29:53;22.40;18.10
42227;DHT22;27892;52.378;13.122;2023-03-01T14:32:21;21.20;17.90
42227;DHT22;27892;52.378;13.122;2023-03-01T14:34:50;19.70;18.70
42227;DHT22;27892;52.378;13.122;2023-03-01T14:37:31;18.40;19.30
42227;DHT22;27892;52.378;13.122;2023-03-01T14:39:59;17.40;19.50
42227;DHT22;27892;52.378;13.122;2023-03-01T14:42:28;16.60;19.90
42227;DHT22;27892;52.378;13.122;2023-03-01T14:44:56;15.90;21.20
42227;DHT22;27892;52.378;13.122;2023-03-01T14:47:28;15.30;21.60
42227;DHT22;27892;52.378;13.122;2023-03-01T14:52:58;14.50;22.10
42227;DHT22;27892;52.378;13.122;2023-03-01T14:55:29;14.20;22.60
42227;DHT22;27892;52.378;13.122;2023-03-01T14:57:56;14.00;23.20
42227;DHT22;27892;52.378;13.122;2023-03-01T15:00:28;13.80;23.40
42227;DHT22;27892;52.378;13.122;2023-03-01T15:02:56;13.50;23.70
42227;DHT22;27892;52.378;13.122;2023-03-01T15:05:30;13.30;23.80
42227;DHT22;27892;52.378;13.122;2023-03-01T15:07:58;13.10;23.70
42227;DHT22;27892;52.378;13.122;2023-03-01T15:10:31;13.00;23.90
42227;DHT22;27892;52.378;13.122;2023-03-01T15:13:13;12.90;24.60
42227;DHT22;27892;52.378;13.122;2023-03-01T15:15:43;12.80;24.60
42227;DHT22;27892;52.378;13.122;2023-03-01T15:18:28;12.70;24.50
42227;DHT22;27892;52.378;13.122;2023-03-01T15:20:54;12.60;24.40
42227;DHT22;27892;52.378;13.122;2023-03-01T15:23:22;12.50;25.10
42227;DHT22;27892;52.378;13.122;2023-03-01T15:25:49;12.40;25.30
42227;DHT22;27892;52.378;13.122;2023-03-01T15:28:30;12.40;25.30
42227;DHT22;27892;52.378;13.122;2023-03-01T15:31:00;12.30;25.20
42227;DHT22;27892;52.378;13.122;2023-03-01T15:33:39;12.10;26.20
42227;DHT22;27892;52.378;13.122;2023-03-01T15:36:33;12.10;26.20
42227;DHT22;27892;52.378;13.122;2023-03-01T15:39:00;11.90;26.50
42227;DHT22;27892;52.378;13.122;2023-03-01T15:43:57;11.80;27.10
42227;DHT22;27892;52.378;13.122;2023-03-01T15:46:33;11.70;27.10
42227;DHT22;27892;52.378;13.122;2023-03-01T15:49:03;11.60;27.10
42227;DHT22;27892;52.378;13.122;2023-03-01T15:51:37;11.50;27.90
42227;DHT22;27892;52.378;13.122;2023-03-01T15:54:19;11.40;27.70
42227;DHT22;27892;52.378;13.122;2023-03-01T15:56:45;11.30;28.00
42227;DHT22;27892;52.378;13.122;2023-03-01T15:59:12;11.20;28.10
42227;DHT22;27892;52.378;13.122;2023-03-01T16:01:40;11.20;28.30
42227;DHT22;27892;52.378;13.122;2023-03-01T16:04:05;11.10;28.80
42227;DHT22;27892;52.378;13.122;2023-03-01T16:06:31;11.00;29.20
42227;DHT22;27892;52.378;13.122;2023-03-01T16:08:58;10.90;29.00
42227;DHT22;27892;52.378;13.122;2023-03-01T16:11:24;10.80;29.70
42227;DHT22;27892;52.378;13.122;2023-03-01T16:13:49;10.70;29.60
42227;DHT22;27892;52.378;13.122;2023-03-01T16:16:16;10.50;29.70
42227;DHT22;27892;52.378;13.122;2023-03-01T16:18:43;10.40;30.00
42227;DHT22;27892;52.378;13.122;2023-03-01T16:21:22;10.30;29.90
42227;DHT22;27892;52.378;13.122;2023-03-01T16:23:48;10.20;30.20
42227;DHT22;27892;52.378;13.122;2023-03-01T16:26:15;10.10;30.50
42227;DHT22;27892;52.378;13.122;2023-03-01T16:28:42;10.00;30.40
42227;DHT22;27892;52.378;13.122;2023-03-01T16:31:08;9.90;31.60
42227;DHT22;27892;52.378;13.122;2023-03-01T16:33:35;9.70;31.70
42227;DHT22;27892;52.378;13.122;2023-03-01T16:36:07;9.60;32.00
42227;DHT22;27892;52.378;13.122;2023-03-01T16:38:32;9.40;32.50
42227;DHT22;27892;52.378;13.122;2023-03-01T16:40:58;9.30;32.90
42227;DHT22;27892;52.378;13.122;2023-03-01T16:43:23;9.20;32.90
42227;DHT22;27892;52.378;13.122;2023-03-01T16:45:49;9.10;33.20
42227;DHT22;27892;52.378;13.122;2023-03-01T16:48:15;8.90;33.40
42227;DHT22;27892;52.378;13.122;2023-03-01T16:50:41;8.80;34.00
42227;DHT22;27892;52.378;13.122;2023-03-01T16:53:06;8.70;34.20
42227;DHT22;27892;52.378;13.122;2023-03-01T16:55:32;8.60;34.50
42227;DHT22;27892;52.378;13.122;2023-03-01T16:57:58;8.40;34.80
42227;DHT22;27892;52.378;13.122;2023-03-01T17:00:24;8.30;35.10
42227;DHT22;27892;52.378;13.122;2023-03-01T17:02:50;8.20;35.30
42227;DHT22;27892;52.378;13.122;2023-03-01T17:05:17;8.10;35.50
42227;DHT22;27892;52.378;13.122;2023-03-01T17:07:43;8.00;35.40
42227;DHT22;27892;52.378;13.122;2023-03-01T17:10:10;7.90;35.60
42227;DHT22;27892;52.378;13.122;2023-03-01T17:12:36;7.80;36.20
42227;DHT22;27892;52.378;13.122;2023-03-01T17:15:02;7.70;36.20
42227;DHT22;27892;52.378;13.122;2023-03-01T17:17:28;7.60;36.50
42227;DHT22;27892;52.378;13.122;2023-03-01T17:19:53;7.50;36.60
42227;DHT22;27892;52.378;13.122;2023-03-01T17:22:19;7.40;37.20
42227;DHT22;27892;52.378;13.122;2023-03-01T17:24:45;7.30;37.60
42227;DHT22;27892;52.378;13.122;2023-03-01T17:27:11;7.10;37.80
42227;DHT22;27892;52.378;13.122;2023-03-01T17:29:39;7.00;37.90
42227;DHT22;27892;52.378;13.122;2023-03-01T17:32:05;7.00;38.20
42227;DHT22;27892;52.378;13.122;2023-03-01T17:34:32;7.00;38.70
42227;DHT22;27892;52.378;13.122;2023-03-01T17:36:58;6.90;39.20
42227;DHT22;27892;52.378;13.122;2023-03-01T17:39:24;6.90;39.70
42227;DHT22;27892;52.378;13.122;2023-03-01T17:41:56;6.70;39.10